sensor_id;sensor_type;location;lat;lon;timestamp;P1;durP1;ratioP1;P2;durP2;ratioP2
21591;SDS011;10958;50.892;3.992;2023-11-21T00:01:24;28.55;;;14.35;;
21591;SDS011;10958;50.892;3.992;2023-11-21T00:03:50;25.55;;;14.10;;
21591;SDS011;10958;50.892;3.992;2023-11-21T00:06:20;28.70;;;14.38;;
21591;SDS011;10958;50.892;3.992;2023-11-21T00:08:46;23.40;;;13.88;;
21591;SDS011;10958;50.892;3.992;2023-11-21T00:11:14;25.77;;;14.63;;
21591;SDS011;10958;50.892;3.992;2023-11-21T00:13:39;26.58;;;14.27;;
21591;SDS011;10958;50.892;3.992;2023-11-21T00:16:09;26.02;;;14.50;;
21591;SDS011;10958;50.892;3.992;2023-11-21T00:18:34;27.90;;;14.95;;
21591;SDS011;10958;50.892;3.992;2023-11-21T00:21:00;25.45;;;13.98;;
21591;SDS011;10958;50.892;3.992;2023-11-21T00:23:26;24.85;;;15.55;;
21591;SDS011;10958;50.892;3.992;2023-11-21T00:25:52;26.77;;;15.63;;
21591;SDS011;10958;50.892;3.992;2023-11-21T00:28:20;31.27;;;15.32;;
21591;SDS011;10958;50.892;3.992;2023-11-21T00:30:45;29.50;;;15.20;;
21591;SDS011;10958;50.892;3.992;2023-11-21T00:33:11;25.98;;;15.45;;
21591;SDS011;10958;50.892;3.992;2023-11-21T00:35:39;27.00;;;14.95;;
21591;SDS011;10958;50.892;3.992;2023-11-21T00:38:05;32.63;;;14.73;;
21591;SDS011;10958;50.892;3.992;2023-11-21T00:40:30;27.55;;;14.65;;
21591;SDS011;10958;50.892;3.992;2023-11-21T00:42:56;24.60;;;14.90;;
21591;SDS011;10958;50.892;3.992;2023-11-21T00:45:22;32.15;;;14.48;;
21591;SDS011;10958;50.892;3.992;2023-11-21T00:47:47;31.23;;;15.50;;
21591;SDS011;10958;50.892;3.992;2023-11-21T00:50:15;28.65;;;15.73;;
21591;SDS011;10958;50.892;3.992;2023-11-21T00:52:43;32.72;;;15.57;;
21591;SDS011;10958;50.892;3.992;2023-11-21T00:55:11;29.73;;;15.75;;
21591;SDS011;10958;50.892;3.992;2023-11-21T00:57:37;31.05;;;15.45;;
21591;SDS011;10958;50.892;3.992;2023-11-21T01:00:03;27.33;;;15.82;;
21591;SDS011;10958;50.892;3.992;2023-11-21T01:02:45;30.15;;;15.75;;
21591;SDS011;10958;50.892;3.992;2023-11-21T01:05:13;31.70;;;16.88;;
21591;SDS011;10958;50.892;3.992;2023-11-21T01:07:39;33.38;;;16.52;;
21591;SDS011;10958;50.892;3.992;2023-11-21T01:10:05;28.95;;;17.20;;
21591;SDS011;10958;50.892;3.992;2023-11-21T01:12:34;30.75;;;16.10;;
21591;SDS011;10958;50.892;3.992;2023-11-21T01:15:02;28.67;;;15.82;;
21591;SDS011;10958;50.892;3.992;2023-11-21T01:17:28;33.80;;;14.73;;
21591;SDS011;10958;50.892;3.992;2023-11-21T01:19:56;31.35;;;16.52;;
21591;SDS011;10958;50.892;3.992;2023-11-21T01:22:22;29.05;;;16.08;;
21591;SDS011;10958;50.892;3.992;2023-11-21T01:24:51;30.90;;;15.52;;
21591;SDS011;10958;50.892;3.992;2023-11-21T01:27:17;31.48;;;14.82;;
21591;SDS011;10958;50.892;3.992;2023-11-21T01:29:46;30.05;;;15.82;;
21591;SDS011;10958;50.892;3.992;2023-11-21T01:32:11;25.38;;;14.98;;
21591;SDS011;10958;50.892;3.992;2023-11-21T01:34:37;29.13;;;15.07;;
21591;SDS011;10958;50.892;3.992;2023-11-21T01:37:05;25.13;;;15.43;;
21591;SDS011;10958;50.892;3.992;2023-11-21T01:39:31;26.88;;;14.35;;
21591;SDS011;10958;50.892;3.992;2023-11-21T01:41:57;25.77;;;14.82;;
21591;SDS011;10958;50.892;3.992;2023-11-21T01:44:26;32.38;;;15.52;;
21591;SDS011;10958;50.892;3.992;2023-11-21T01:46:51;31.23;;;15.52;;
21591;SDS011;10958;50.892;3.992;2023-11-21T01:49:18;24.48;;;14.93;;
21591;SDS011;10958;50.892;3.992;2023-11-21T01:51:46;27.77;;;14.98;;
21591;SDS011;10958;50.892;3.992;2023-11-21T01:54:16;26.92;;;14.55;;
21591;SDS011;10958;50.892;3.992;2023-11-21T01:56:45;30.38;;;14.25;;
21591;SDS011;10958;50.892;3.992;2023-11-21T01:59:15;25.83;;;14.43;;
21591;SDS011;10958;50.892;3.992;2023-11-21T02:01:48;24.75;;;13.75;;
21591;SDS011;10958;50.892;3.992;2023-11-21T02:04:15;27.23;;;14.48;;
21591;SDS011;10958;50.892;3.992;2023-11-21T02:06:43;25.55;;;13.82;;
21591;SDS011;10958;50.892;3.992;2023-11-21T02:09:09;29.13;;;15.10;;
21591;SDS011;10958;50.892;3.992;2023-11-21T02:11:35;29.33;;;14.98;;
21591;SDS011;10958;50.892;3.992;2023-11-21T02:14:00;26.35;;;15.00;;
21591;SDS011;10958;50.892;3.992;2023-11-21T02:16:26;28.42;;;14.43;;
21591;SDS011;10958;50.892;3.992;2023-11-21T02:18:55;28.02;;;15.07;;
21591;SDS011;10958;50.892;3.992;2023-11-21T02:21:22;24.02;;;14.82;;
21591;SDS011;10958;50.892;3.992;2023-11-21T02:23:50;27.55;;;14.30;;
21591;SDS011;10958;50.892;3.992;2023-11-21T02:26:16;29.48;;;14.70;;
21591;SDS011;10958;50.892;3.992;2023-11-21T02:28:42;30.10;;;15.63;;
21591;SDS011;10958;50.892;3.992;2023-11-21T02:31:07;25.17;;;15.15;;
21591;SDS011;10958;50.892;3.992;2023-11-21T02:33:33;27.33;;;15.35;;
21591;SDS011;10958;50.892;3.992;2023-11-21T02:35:59;26.20;;;15.38;;
21591;SDS011;10958;50.892;3.992;2023-11-21T02:38:25;30.55;;;15.48;;
21591;SDS011;10958;50.892;3.992;2023-11-21T02:40:54;25.65;;;15.05;;
21591;SDS011;10958;50.892;3.992;2023-11-21T02:43:20;25.05;;;15.27;;
21591;SDS011;10958;50.892;3.992;2023-11-21T02:45:48;27.40;;;16.10;;
21591;SDS011;10958;50.892;3.992;2023-11-21T02:48:14;25.05;;;15.82;;
21591;SDS011;10958;50.892;3.992;2023-11-21T02:50:40;24.70;;;15.40;;
21591;SDS011;10958;50.892;3.992;2023-11-21T02:53:05;26.40;;;15.27;;
21591;SDS011;10958;50.892;3.992;2023-11-21T02:55:33;31.90;;;15.63;;
21591;SDS011;10958;50.892;3.992;2023-11-21T02:58:00;26.10;;;16.63;;
21591;SDS011;10958;50.892;3.992;2023-11-21T03:00:26;31.60;;;15.43;;
21591;SDS011;10958;50.892;3.992;2023-11-21T03:02:51;25.38;;;14.98;;
21591;SDS011;10958;50.892;3.992;2023-11-21T03:05:20;28.05;;;16.33;;
21591;SDS011;10958;50.892;3.992;2023-11-21T03:07:46;29.70;;;14.65;;
21591;SDS011;10958;50.892;3.992;2023-11-21T03:10:12;22.90;;;14.27;;
21591;SDS011;10958;50.892;3.992;2023-11-21T03:12:38;26.83;;;15.80;;
21591;SDS011;10958;50.892;3.992;2023-11-21T03:15:05;25.48;;;13.85;;
21591;SDS011;10958;50.892;3.992;2023-11-21T03:17:33;24.40;;;14.73;;
21591;SDS011;10958;50.892;3.992;2023-11-21T03:19:59;29.77;;;15.82;;
21591;SDS011;10958;50.892;3.992;2023-11-21T03:22:25;27.75;;;16.67;;
21591;SDS011;10958;50.892;3.992;2023-11-21T03:24:56;30.48;;;15.52;;
21591;SDS011;10958;50.892;3.992;2023-11-21T03:27:21;27.25;;;16.13;;
21591;SDS011;10958;50.892;3.992;2023-11-21T03:29:48;32.83;;;17.67;;
21591;SDS011;10958;50.892;3.992;2023-11-21T03:32:14;29.77;;;17.50;;
21591;SDS011;10958;50.892;3.992;2023-11-21T03:34:57;30.67;;;16.95;;
21591;SDS011;10958;50.892;3.992;2023-11-21T03:37:23;33.17;;;18.23;;
21591;SDS011;10958;50.892;3.992;2023-11-21T03:39:50;29.67;;;16.90;;
21591;SDS011;10958;50.892;3.992;2023-11-21T03:42:18;24.87;;;14.93;;
21591;SDS011;10958;50.892;3.992;2023-11-21T03:44:43;40.20;;;21.23;;
21591;SDS011;10958;50.892;3.992;2023-11-21T03:47:09;39.10;;;20.85;;
21591;SDS011;10958;50.892;3.992;2023-11-21T03:49:35;36.22;;;18.65;;
21591;SDS011;10958;50.892;3.992;2023-11-21T03:52:00;33.58;;;19.80;;
21591;SDS011;10958;50.892;3.992;2023-11-21T03:54:27;40.50;;;19.65;;
21591;SDS011;10958;50.892;3.992;2023-11-21T03:56:53;33.88;;;19.23;;
21591;SDS011;10958;50.892;3.992;2023-11-21T03:59:19;34.13;;;18.48;;
21591;SDS011;10958;50.892;3.992;2023-11-21T04:01:44;32.55;;;19.27;;
21591;SDS011;10958;50.892;3.992;2023-11-21T04:04:10;32.38;;;19.02;;
21591;SDS011;10958;50.892;3.992;2023-11-21T04:06:36;33.78;;;17.90;;
21591;SDS011;10958;50.892;3.992;2023-11-21T04:09:02;34.25;;;18.73;;
21591;SDS011;10958;50.892;3.992;2023-11-21T04:11:29;32.22;;;17.55;;
21591;SDS011;10958;50.892;3.992;2023-11-21T04:13:57;32.58;;;18.13;;
21591;SDS011;10958;50.892;3.992;2023-11-21T04:16:24;31.48;;;17.80;;
21591;SDS011;10958;50.892;3.992;2023-11-21T04:18:50;29.48;;;16.92;;
21591;SDS011;10958;50.892;3.992;2023-11-21T04:21:15;35.53;;;19.30;;
21591;SDS011;10958;50.892;3.992;2023-11-21T04:23:43;30.63;;;16.52;;
21591;SDS011;10958;50.892;3.992;2023-11-21T04:26:11;30.67;;;16.00;;
21591;SDS011;10958;50.892;3.992;2023-11-21T04:28:37;26.67;;;14.93;;
21591;SDS011;10958;50.892;3.992;2023-11-21T04:31:03;25.80;;;14.60;;
21591;SDS011;10958;50.892;3.992;2023-11-21T04:33:29;25.92;;;14.95;;
21591;SDS011;10958;50.892;3.992;2023-11-21T04:35:57;23.67;;;13.68;;
21591;SDS011;10958;50.892;3.992;2023-11-21T04:38:22;29.10;;;15.77;;
21591;SDS011;10958;50.892;3.992;2023-11-21T04:40:48;26.60;;;16.90;;
21591;SDS011;10958;50.892;3.992;2023-11-21T04:43:13;34.13;;;18.67;;
21591;SDS011;10958;50.892;3.992;2023-11-21T04:45:39;41.95;;;22.27;;
21591;SDS011;10958;50.892;3.992;2023-11-21T04:48:07;34.17;;;20.55;;
21591;SDS011;10958;50.892;3.992;2023-11-21T04:50:35;32.10;;;17.65;;
21591;SDS011;10958;50.892;3.992;2023-11-21T04:53:01;30.15;;;17.98;;
21591;SDS011;10958;50.892;3.992;2023-11-21T04:55:27;34.65;;;18.40;;
21591;SDS011;10958;50.892;3.992;2023-11-21T04:57:53;35.15;;;18.88;;
21591;SDS011;10958;50.892;3.992;2023-11-21T05:00:19;30.65;;;16.85;;
21591;SDS011;10958;50.892;3.992;2023-11-21T05:02:46;30.63;;;17.70;;
21591;SDS011;10958;50.892;3.992;2023-11-21T05:05:14;29.02;;;17.27;;
21591;SDS011;10958;50.892;3.992;2023-11-21T05:07:40;26.87;;;16.63;;
21591;SDS011;10958;50.892;3.992;2023-11-21T05:10:06;28.05;;;16.20;;
21591;SDS011;10958;50.892;3.992;2023-11-21T05:12:33;28.70;;;15.95;;
21591;SDS011;10958;50.892;3.992;2023-11-21T05:15:03;26.98;;;16.25;;
21591;SDS011;10958;50.892;3.992;2023-11-21T05:17:33;26.98;;;15.95;;
21591;SDS011;10958;50.892;3.992;2023-11-21T05:20:00;20.65;;;14.52;;
21591;SDS011;10958;50.892;3.992;2023-11-21T05:22:33;25.98;;;15.20;;
21591;SDS011;10958;50.892;3.992;2023-11-21T05:24:59;28.48;;;15.43;;
21591;SDS011;10958;50.892;3.992;2023-11-21T05:27:28;26.00;;;16.65;;
21591;SDS011;10958;50.892;3.992;2023-11-21T05:29:53;32.10;;;18.60;;
21591;SDS011;10958;50.892;3.992;2023-11-21T05:32:19;26.35;;;17.30;;
21591;SDS011;10958;50.892;3.992;2023-11-21T05:34:45;32.42;;;18.50;;
21591;SDS011;10958;50.892;3.992;2023-11-21T05:37:10;27.90;;;16.48;;
21591;SDS011;10958;50.892;3.992;2023-11-21T05:39:36;26.58;;;16.80;;
21591;SDS011;10958;50.892;3.992;2023-11-21T05:42:02;23.13;;;15.63;;
21591;SDS011;10958;50.892;3.992;2023-11-21T05:44:28;30.48;;;17.15;;
21591;SDS011;10958;50.892;3.992;2023-11-21T05:46:55;27.02;;;17.30;;
21591;SDS011;10958;50.892;3.992;2023-11-21T05:49:20;24.40;;;16.30;;
21591;SDS011;10958;50.892;3.992;2023-11-21T05:51:46;26.15;;;15.80;;
21591;SDS011;10958;50.892;3.992;2023-11-21T05:54:12;28.55;;;15.80;;
21591;SDS011;10958;50.892;3.992;2023-11-21T05:56:38;29.98;;;15.68;;
21591;SDS011;10958;50.892;3.992;2023-11-21T05:59:04;29.05;;;15.75;;
21591;SDS011;10958;50.892;3.992;2023-11-21T06:01:31;26.88;;;15.63;;
21591;SDS011;10958;50.892;3.992;2023-11-21T06:03:57;26.35;;;16.77;;
21591;SDS011;10958;50.892;3.992;2023-11-21T06:06:24;24.15;;;14.93;;
21591;SDS011;10958;50.892;3.992;2023-11-21T06:08:50;23.33;;;13.95;;
21591;SDS011;10958;50.892;3.992;2023-11-21T06:11:17;23.88;;;12.98;;
21591;SDS011;10958;50.892;3.992;2023-11-21T06:13:44;25.58;;;13.30;;
21591;SDS011;10958;50.892;3.992;2023-11-21T06:16:12;23.88;;;13.25;;
21591;SDS011;10958;50.892;3.992;2023-11-21T06:18:41;21.25;;;13.63;;
21591;SDS011;10958;50.892;3.992;2023-11-21T06:21:09;24.95;;;14.55;;
21591;SDS011;10958;50.892;3.992;2023-11-21T06:23:37;26.70;;;14.50;;
21591;SDS011;10958;50.892;3.992;2023-11-21T06:26:03;26.23;;;15.35;;
21591;SDS011;10958;50.892;3.992;2023-11-21T06:28:30;37.53;;;16.42;;
21591;SDS011;10958;50.892;3.992;2023-11-21T06:30:56;26.05;;;15.02;;
21591;SDS011;10958;50.892;3.992;2023-11-21T06:33:23;28.48;;;15.23;;
21591;SDS011;10958;50.892;3.992;2023-11-21T06:35:50;32.70;;;15.50;;
21591;SDS011;10958;50.892;3.992;2023-11-21T06:38:16;31.13;;;15.40;;
21591;SDS011;10958;50.892;3.992;2023-11-21T06:40:42;29.13;;;15.02;;
21591;SDS011;10958;50.892;3.992;2023-11-21T06:43:09;28.77;;;16.92;;
21591;SDS011;10958;50.892;3.992;2023-11-21T06:45:35;33.28;;;16.60;;
21591;SDS011;10958;50.892;3.992;2023-11-21T06:48:01;28.65;;;16.23;;
21591;SDS011;10958;50.892;3.992;2023-11-21T06:50:27;30.05;;;16.85;;
21591;SDS011;10958;50.892;3.992;2023-11-21T06:52:52;36.45;;;16.88;;
21591;SDS011;10958;50.892;3.992;2023-11-21T06:55:21;29.88;;;16.92;;
21591;SDS011;10958;50.892;3.992;2023-11-21T06:57:46;33.22;;;16.52;;
21591;SDS011;10958;50.892;3.992;2023-11-21T07:00:13;39.03;;;17.02;;
21591;SDS011;10958;50.892;3.992;2023-11-21T07:02:40;34.90;;;16.58;;
21591;SDS011;10958;50.892;3.992;2023-11-21T07:05:06;38.17;;;16.50;;
21591;SDS011;10958;50.892;3.992;2023-11-21T07:07:32;38.63;;;16.95;;
21591;SDS011;10958;50.892;3.992;2023-11-21T07:10:00;37.88;;;18.23;;
21591;SDS011;10958;50.892;3.992;2023-11-21T07:12:28;44.13;;;19.15;;
21591;SDS011;10958;50.892;3.992;2023-11-21T07:14:59;38.08;;;17.63;;
21591;SDS011;10958;50.892;3.992;2023-11-21T07:17:25;36.78;;;16.30;;
21591;SDS011;10958;50.892;3.992;2023-11-21T07:19:51;44.17;;;18.52;;
21591;SDS011;10958;50.892;3.992;2023-11-21T07:22:16;46.38;;;17.67;;
21591;SDS011;10958;50.892;3.992;2023-11-21T07:24:49;36.95;;;17.88;;
21591;SDS011;10958;50.892;3.992;2023-11-21T07:27:18;39.08;;;18.25;;
21591;SDS011;10958;50.892;3.992;2023-11-21T07:29:44;43.97;;;18.48;;
21591;SDS011;10958;50.892;3.992;2023-11-21T07:32:10;37.95;;;18.70;;
21591;SDS011;10958;50.892;3.992;2023-11-21T07:34:39;43.60;;;18.30;;
21591;SDS011;10958;50.892;3.992;2023-11-21T07:37:06;47.33;;;18.52;;
21591;SDS011;10958;50.892;3.992;2023-11-21T07:39:35;38.40;;;17.13;;
21591;SDS011;10958;50.892;3.992;2023-11-21T07:42:01;36.70;;;17.98;;
21591;SDS011;10958;50.892;3.992;2023-11-21T07:44:27;36.72;;;17.33;;
21591;SDS011;10958;50.892;3.992;2023-11-21T07:46:54;39.75;;;16.88;;
21591;SDS011;10958;50.892;3.992;2023-11-21T07:49:23;31.75;;;16.27;;
21591;SDS011;10958;50.892;3.992;2023-11-21T07:51:50;30.55;;;16.08;;
21591;SDS011;10958;50.892;3.992;2023-11-21T07:54:15;33.28;;;16.98;;
21591;SDS011;10958;50.892;3.992;2023-11-21T07:56:41;32.45;;;16.17;;
21591;SDS011;10958;50.892;3.992;2023-11-21T07:59:07;41.90;;;16.85;;
21591;SDS011;10958;50.892;3.992;2023-11-21T08:01:33;40.55;;;17.88;;
21591;SDS011;10958;50.892;3.992;2023-11-21T08:04:01;36.33;;;17.98;;
21591;SDS011;10958;50.892;3.992;2023-11-21T08:06:29;39.83;;;17.83;;
21591;SDS011;10958;50.892;3.992;2023-11-21T08:08:58;44.45;;;18.70;;
21591;SDS011;10958;50.892;3.992;2023-11-21T08:11:26;47.05;;;20.40;;
21591;SDS011;10958;50.892;3.992;2023-11-21T08:13:54;44.92;;;19.90;;
21591;SDS011;10958;50.892;3.992;2023-11-21T08:16:20;44.58;;;19.20;;
21591;SDS011;10958;50.892;3.992;2023-11-21T08:18:46;49.53;;;20.20;;
21591;SDS011;10958;50.892;3.992;2023-11-21T08:21:14;46.85;;;19.65;;
21591;SDS011;10958;50.892;3.992;2023-11-21T08:23:40;45.95;;;19.48;;
21591;SDS011;10958;50.892;3.992;2023-11-21T08:26:05;44.45;;;19.95;;
21591;SDS011;10958;50.892;3.992;2023-11-21T08:28:31;48.25;;;21.35;;
21591;SDS011;10958;50.892;3.992;2023-11-21T08:30:57;48.58;;;21.75;;
21591;SDS011;10958;50.892;3.992;2023-11-21T08:33:22;44.70;;;21.63;;
21591;SDS011;10958;50.892;3.992;2023-11-21T08:35:48;39.70;;;19.02;;
21591;SDS011;10958;50.892;3.992;2023-11-21T08:38:14;42.22;;;18.98;;
21591;SDS011;10958;50.892;3.992;2023-11-21T08:40:40;42.38;;;18.20;;
21591;SDS011;10958;50.892;3.992;2023-11-21T08:43:08;43.60;;;18.10;;
21591;SDS011;10958;50.892;3.992;2023-11-21T08:45:37;38.80;;;17.67;;
21591;SDS011;10958;50.892;3.992;2023-11-21T08:48:03;41.25;;;18.27;;
21591;SDS011;10958;50.892;3.992;2023-11-21T08:50:30;41.40;;;18.75;;
21591;SDS011;10958;50.892;3.992;2023-11-21T08:52:56;41.25;;;17.63;;
21591;SDS011;10958;50.892;3.992;2023-11-21T08:55:22;40.25;;;17.42;;
21591;SDS011;10958;50.892;3.992;2023-11-21T08:57:48;38.70;;;17.70;;
21591;SDS011;10958;50.892;3.992;2023-11-21T09:00:13;42.25;;;19.02;;
21591;SDS011;10958;50.892;3.992;2023-11-21T09:02:42;40.38;;;17.52;;
21591;SDS011;10958;50.892;3.992;2023-11-21T09:05:08;39.97;;;18.05;;
21591;SDS011;10958;50.892;3.992;2023-11-21T09:07:35;38.78;;;19.27;;
21591;SDS011;10958;50.892;3.992;2023-11-21T09:10:02;42.05;;;20.13;;
21591;SDS011;10958;50.892;3.992;2023-11-21T09:12:32;40.55;;;19.42;;
21591;SDS011;10958;50.892;3.992;2023-11-21T09:15:03;37.63;;;19.83;;
21591;SDS011;10958;50.892;3.992;2023-11-21T09:17:35;48.65;;;24.42;;
21591;SDS011;10958;50.892;3.992;2023-11-21T09:20:00;45.80;;;23.30;;
21591;SDS011;10958;50.892;3.992;2023-11-21T09:22:28;41.42;;;21.30;;
21591;SDS011;10958;50.892;3.992;2023-11-21T09:24:54;42.63;;;22.67;;
21591;SDS011;10958;50.892;3.992;2023-11-21T09:27:22;43.50;;;24.88;;
21591;SDS011;10958;50.892;3.992;2023-11-21T09:29:48;35.95;;;19.55;;
21591;SDS011;10958;50.892;3.992;2023-11-21T09:32:14;29.17;;;17.23;;
21591;SDS011;10958;50.892;3.992;2023-11-21T09:34:41;31.55;;;18.10;;
21591;SDS011;10958;50.892;3.992;2023-11-21T09:37:07;32.30;;;15.45;;
21591;SDS011;10958;50.892;3.992;2023-11-21T09:39:33;22.90;;;14.52;;
21591;SDS011;10958;50.892;3.992;2023-11-21T09:42:04;24.45;;;13.60;;
21591;SDS011;10958;50.892;3.992;2023-11-21T09:45:03;22.85;;;14.38;;
21591;SDS011;10958;50.892;3.992;2023-11-21T09:47:38;23.58;;;13.43;;
21591;SDS011;10958;50.892;3.992;2023-11-21T09:50:06;18.60;;;12.45;;
21591;SDS011;10958;50.892;3.992;2023-11-21T09:52:41;21.08;;;12.52;;
21591;SDS011;10958;50.892;3.992;2023-11-21T09:55:18;22.95;;;14.40;;
21591;SDS011;10958;50.892;3.992;2023-11-21T09:57:47;20.50;;;12.90;;
21591;SDS011;10958;50.892;3.992;2023-11-21T10:00:15;21.83;;;13.18;;
21591;SDS011;10958;50.892;3.992;2023-11-21T10:02:43;24.08;;;13.48;;
21591;SDS011;10958;50.892;3.992;2023-11-21T10:05:09;21.83;;;13.50;;
21591;SDS011;10958;50.892;3.992;2023-11-21T10:07:38;22.90;;;13.13;;
21591;SDS011;10958;50.892;3.992;2023-11-21T10:10:09;20.30;;;12.77;;
21591;SDS011;10958;50.892;3.992;2023-11-21T10:12:35;16.38;;;11.07;;
21591;SDS011;10958;50.892;3.992;2023-11-21T10:15:03;14.98;;;10.52;;
21591;SDS011;10958;50.892;3.992;2023-11-21T10:17:34;15.00;;;10.27;;
21591;SDS011;10958;50.892;3.992;2023-11-21T10:20:08;15.52;;;9.68;;
21591;SDS011;10958;50.892;3.992;2023-11-21T10:22:40;14.27;;;9.43;;
21591;SDS011;10958;50.892;3.992;2023-11-21T10:25:07;13.40;;;8.75;;
21591;SDS011;10958;50.892;3.992;2023-11-21T10:27:34;15.65;;;9.18;;
21591;SDS011;10958;50.892;3.992;2023-11-21T10:30:01;13.60;;;9.05;;
21591;SDS011;10958;50.892;3.992;2023-11-21T10:32:29;16.30;;;8.27;;
21591;SDS011;10958;50.892;3.992;2023-11-21T10:35:01;12.38;;;7.82;;
21591;SDS011;10958;50.892;3.992;2023-11-21T10:37:31;12.52;;;7.35;;
21591;SDS011;10958;50.892;3.992;2023-11-21T10:40:00;12.05;;;7.25;;
21591;SDS011;10958;50.892;3.992;2023-11-21T10:42:31;9.13;;;6.63;;
21591;SDS011;10958;50.892;3.992;2023-11-21T10:45:03;8.98;;;6.43;;
21591;SDS011;10958;50.892;3.992;2023-11-21T10:47:34;9.75;;;5.80;;
21591;SDS011;10958;50.892;3.992;2023-11-21T10:50:03;7.63;;;5.87;;
21591;SDS011;10958;50.892;3.992;2023-11-21T10:52:30;11.57;;;6.32;;
21591;SDS011;10958;50.892;3.992;2023-11-21T10:55:01;6.85;;;5.00;;
21591;SDS011;10958;50.892;3.992;2023-11-21T10:57:28;7.72;;;5.00;;
21591;SDS011;10958;50.892;3.992;2023-11-21T10:59:55;8.05;;;4.20;;
21591;SDS011;10958;50.892;3.992;2023-11-21T11:03:33;7.40;;;3.83;;
21591;SDS011;10958;50.892;3.992;2023-11-21T11:06:01;7.28;;;4.10;;
21591;SDS011;10958;50.892;3.992;2023-11-21T11:08:28;12.77;;;6.47;;
21591;SDS011;10958;50.892;3.992;2023-11-21T11:10:55;24.55;;;12.60;;
21591;SDS011;10958;50.892;3.992;2023-11-21T11:13:21;16.15;;;7.82;;
21591;SDS011;10958;50.892;3.992;2023-11-21T11:15:48;10.98;;;5.80;;
21591;SDS011;10958;50.892;3.992;2023-11-21T11:18:14;8.90;;;4.45;;
21591;SDS011;10958;50.892;3.992;2023-11-21T11:20:41;11.18;;;4.57;;
21591;SDS011;10958;50.892;3.992;2023-11-21T11:31:51;9.20;;;5.05;;
21591;SDS011;10958;50.892;3.992;2023-11-21T11:34:41;8.57;;;3.25;;
21591;SDS011;10958;50.892;3.992;2023-11-21T11:37:15;8.00;;;3.60;;
21591;SDS011;10958;50.892;3.992;2023-11-21T11:39:41;8.70;;;3.10;;
21591;SDS011;10958;50.892;3.992;2023-11-21T11:42:14;9.57;;;2.50;;
21591;SDS011;10958;50.892;3.992;2023-11-21T11:49:56;7.57;;;2.53;;
21591;SDS011;10958;50.892;3.992;2023-11-21T11:52:35;3.70;;;2.35;;
21591;SDS011;10958;50.892;3.992;2023-11-21T11:55:02;4.93;;;2.50;;
21591;SDS011;10958;50.892;3.992;2023-11-21T11:57:32;7.97;;;2.08;;
21591;SDS011;10958;50.892;3.992;2023-11-21T12:03:02;6.72;;;2.30;;
21591;SDS011;10958;50.892;3.992;2023-11-21T12:05:29;4.85;;;2.47;;
21591;SDS011;10958;50.892;3.992;2023-11-21T12:08:06;6.03;;;1.70;;
21591;SDS011;10958;50.892;3.992;2023-11-21T12:10:33;4.78;;;1.52;;
21591;SDS011;10958;50.892;3.992;2023-11-21T12:13:01;5.57;;;1.70;;
21591;SDS011;10958;50.892;3.992;2023-11-21T12:15:35;5.50;;;2.03;;
21591;SDS011;10958;50.892;3.992;2023-11-21T12:18:01;7.45;;;2.10;;
21591;SDS011;10958;50.892;3.992;2023-11-21T12:20:27;4.03;;;2.03;;
21591;SDS011;10958;50.892;3.992;2023-11-21T12:22:55;6.07;;;2.33;;
21591;SDS011;10958;50.892;3.992;2023-11-21T12:25:24;6.75;;;2.55;;
21591;SDS011;10958;50.892;3.992;2023-11-21T12:27:54;5.63;;;1.92;;
21591;SDS011;10958;50.892;3.992;2023-11-21T12:30:21;3.15;;;1.92;;
21591;SDS011;10958;50.892;3.992;2023-11-21T12:32:49;6.00;;;1.92;;
21591;SDS011;10958;50.892;3.992;2023-11-21T12:35:16;6.07;;;2.25;;
21591;SDS011;10958;50.892;3.992;2023-11-21T12:37:47;6.70;;;2.23;;
21591;SDS011;10958;50.892;3.992;2023-11-21T12:40:14;5.70;;;2.40;;
21591;SDS011;10958;50.892;3.992;2023-11-21T12:42:44;6.60;;;2.15;;
21591;SDS011;10958;50.892;3.992;2023-11-21T12:47:45;9.50;;;2.72;;
21591;SDS011;10958;50.892;3.992;2023-11-21T12:50:10;6.30;;;3.00;;
21591;SDS011;10958;50.892;3.992;2023-11-21T12:55:06;5.32;;;2.67;;
21591;SDS011;10958;50.892;3.992;2023-11-21T12:57:33;6.07;;;2.88;;
21591;SDS011;10958;50.892;3.992;2023-11-21T12:59:59;7.25;;;2.83;;
21591;SDS011;10958;50.892;3.992;2023-11-21T13:02:27;9.35;;;2.95;;
21591;SDS011;10958;50.892;3.992;2023-11-21T13:04:56;7.28;;;3.25;;
21591;SDS011;10958;50.892;3.992;2023-11-21T13:07:23;6.82;;;3.33;;
21591;SDS011;10958;50.892;3.992;2023-11-21T13:09:52;7.25;;;3.15;;
21591;SDS011;10958;50.892;3.992;2023-11-21T13:12:23;11.82;;;3.42;;
21591;SDS011;10958;50.892;3.992;2023-11-21T13:14:50;7.00;;;4.05;;
21591;SDS011;10958;50.892;3.992;2023-11-21T13:17:16;7.05;;;3.70;;
21591;SDS011;10958;50.892;3.992;2023-11-21T13:19:43;9.93;;;5.03;;
21591;SDS011;10958;50.892;3.992;2023-11-21T13:22:09;9.40;;;4.47;;
21591;SDS011;10958;50.892;3.992;2023-11-21T13:24:36;10.07;;;4.82;;
21591;SDS011;10958;50.892;3.992;2023-11-21T13:27:02;9.50;;;5.82;;
21591;SDS011;10958;50.892;3.992;2023-11-21T13:29:30;8.20;;;5.22;;
21591;SDS011;10958;50.892;3.992;2023-11-21T13:31:55;11.05;;;5.80;;
21591;SDS011;10958;50.892;3.992;2023-11-21T13:34:21;9.57;;;5.60;;
21591;SDS011;10958;50.892;3.992;2023-11-21T13:39:23;6.03;;;5.07;;
21591;SDS011;10958;50.892;3.992;2023-11-21T13:41:48;8.27;;;5.72;;
21591;SDS011;10958;50.892;3.992;2023-11-21T13:44:19;7.95;;;5.80;;
21591;SDS011;10958;50.892;3.992;2023-11-21T13:46:52;11.43;;;5.90;;
21591;SDS011;10958;50.892;3.992;2023-11-21T13:49:18;8.80;;;6.57;;
21591;SDS011;10958;50.892;3.992;2023-11-21T13:51:46;7.75;;;6.78;;
21591;SDS011;10958;50.892;3.992;2023-11-21T13:54:15;10.65;;;7.50;;
21591;SDS011;10958;50.892;3.992;2023-11-21T13:56:41;10.95;;;6.88;;
21591;SDS011;10958;50.892;3.992;2023-11-21T13:59:09;7.82;;;6.55;;
21591;SDS011;10958;50.892;3.992;2023-11-21T14:01:46;9.00;;;6.65;;
21591;SDS011;10958;50.892;3.992;2023-11-21T14:04:18;8.45;;;5.97;;
21591;SDS011;10958;50.892;3.992;2023-11-21T14:06:56;9.38;;;5.13;;
21591;SDS011;10958;50.892;3.992;2023-11-21T14:09:26;11.30;;;5.95;;
21591;SDS011;10958;50.892;3.992;2023-11-21T14:11:57;9.52;;;6.55;;
21591;SDS011;10958;50.892;3.992;2023-11-21T14:14:28;10.52;;;6.57;;
21591;SDS011;10958;50.892;3.992;2023-11-21T14:16:53;7.80;;;5.25;;
21591;SDS011;10958;50.892;3.992;2023-11-21T14:19:21;7.88;;;4.70;;
21591;SDS011;10958;50.892;3.992;2023-11-21T14:21:51;9.40;;;5.40;;
21591;SDS011;10958;50.892;3.992;2023-11-21T14:24:17;5.78;;;4.13;;
21591;SDS011;10958;50.892;3.992;2023-11-21T14:26:44;6.57;;;4.68;;
21591;SDS011;10958;50.892;3.992;2023-11-21T14:29:11;6.57;;;4.72;;
21591;SDS011;10958;50.892;3.992;2023-11-21T14:31:45;5.53;;;4.53;;
21591;SDS011;10958;50.892;3.992;2023-11-21T14:34:11;8.85;;;4.78;;
21591;SDS011;10958;50.892;3.992;2023-11-21T14:36:38;6.65;;;4.30;;
21591;SDS011;10958;50.892;3.992;2023-11-21T14:39:05;6.00;;;3.85;;
21591;SDS011;10958;50.892;3.992;2023-11-21T14:41:51;6.75;;;4.30;;
21591;SDS011;10958;50.892;3.992;2023-11-21T14:44:24;6.20;;;3.78;;
21591;SDS011;10958;50.892;3.992;2023-11-21T14:46:57;8.38;;;4.40;;
21591;SDS011;10958;50.892;3.992;2023-11-21T14:49:24;6.47;;;4.82;;
21591;SDS011;10958;50.892;3.992;2023-11-21T14:51:53;7.03;;;4.13;;
21591;SDS011;10958;50.892;3.992;2023-11-21T14:54:22;6.20;;;3.83;;
21591;SDS011;10958;50.892;3.992;2023-11-21T14:57:04;6.55;;;4.05;;